Wetonka, South Dakota
Current Conditions -  °F | °C
As of 5:53 AM on Monday 24 Nov 2014 (Local Time) from KABR Reporting Station
Light Snow Light Snow  
Wind Chill: -1°   Ceiling: 1900
Heat Index: 18°   Visibility: 9mi
Dew Point: 10°   Wind: 28mph
Humidity: 71%   Direction: 330°NNW
Pressure: 29.67"   Gusts: 33mph
Location:  45.6082°N, 98.6649°W
Report Text: KABR 241153Z AUTO 33024G29KT 9SM -SN OVC019 M08/M12 A2967 RMK AO2 PK WND 33029/1153 SNB18 SLP065 P0000 60000 T10781122 11067 21078 53006
Loading
Personal Weather Stations






























Interactive Weather Map New forecast layout! Learn more

10-Day Weather Forecast

Advertisements
Track Severe Weather on mobile